createdAt,value
2022-08-24T00:00:35.035Z,151748.50
2022-08-24T00:01:37.420Z,151727.69
2022-08-24T00:02:39.950Z,151682.44
2022-08-24T00:03:43.687Z,151716.66
2022-08-24T00:04:47.100Z,151713.00
2022-08-24T00:05:51.727Z,151713.00
2022-08-24T00:06:53.894Z,151677.56
2022-08-24T00:07:56.114Z,151682.44
2022-08-24T00:08:59.201Z,151728.91
2022-08-24T00:10:01.925Z,151748.50
2022-08-24T00:11:05.321Z,151702.00
2022-08-24T00:12:08.425Z,151687.31
2022-08-24T00:13:14.658Z,151711.78
2022-08-24T00:14:17.750Z,151648.22
2022-08-24T00:15:20.596Z,151616.41
2022-08-24T00:16:23.721Z,151621.31
2022-08-24T00:17:25.938Z,151615.19
2022-08-24T00:18:28.344Z,151580.97
2022-08-24T00:19:30.570Z,151594.41
2022-08-24T00:20:33.580Z,151607.88
2022-08-24T00:21:35.793Z,151578.53
2022-08-24T00:22:38.978Z,151610.31
2022-08-24T00:23:41.647Z,151633.56
2022-08-24T00:24:44.302Z,151570.00
2022-08-24T00:25:46.841Z,151613.97
2022-08-24T00:26:49.423Z,151633.56
2022-08-24T00:27:51.767Z,151610.31
2022-08-24T00:28:54.072Z,151609.09
2022-08-24T00:29:56.474Z,151579.75
2022-08-24T00:30:59.018Z,151650.66
2022-08-24T00:32:01.478Z,151604.22
2022-08-24T00:33:03.743Z,151604.22
2022-08-24T00:34:06.769Z,151613.97
2022-08-24T00:35:10.283Z,151653.09
2022-08-24T00:36:12.463Z,151631.06
2022-08-24T00:37:14.669Z,151579.75
2022-08-24T00:38:17.338Z,151560.13
2022-08-24T00:39:19.898Z,151524.69
2022-08-24T00:40:35.910Z,151616.41
2022-08-24T00:41:44.212Z,151660.41
2022-08-24T00:42:46.882Z,151578.53
2022-08-24T00:43:58.475Z,151686.09
2022-08-24T00:45:00.682Z,151607.88
2022-08-24T00:46:25.535Z,151636.00
2022-08-24T00:47:35.019Z,151613.97
2022-08-24T00:48:42.574Z,151628.63
2022-08-24T00:49:56.075Z,151680.00
2022-08-24T00:50:59.963Z,151601.78
2022-08-24T00:52:06.231Z,151587.06
2022-08-24T00:53:39.355Z,151623.75
2022-08-24T00:54:49.332Z,151594.41
2022-08-24T00:55:56.049Z,151620.09
2022-08-24T00:57:04.392Z,151591.97
2022-08-24T00:58:20.773Z,151623.75
2022-08-24T00:59:34.242Z,151606.66
2022-08-24T01:00:42.039Z,151611.53
2022-08-24T01:01:51.343Z,151590.75
2022-08-24T01:03:04.292Z,151582.19
2022-08-24T01:04:10.913Z,151584.63
2022-08-24T01:05:13.318Z,151533.25
2022-08-24T01:06:15.929Z,151540.59
2022-08-24T01:07:19.034Z,151533.25
2022-08-24T01:08:21.746Z,151535.72
2022-08-24T01:09:24.243Z,151583.41
2022-08-24T01:10:30.361Z,151596.84
2022-08-24T01:11:34.143Z,151539.38
2022-08-24T01:12:39.494Z,151603.00
2022-08-24T01:13:47.457Z,151631.06
2022-08-24T01:14:49.784Z,151546.72
2022-08-24T01:15:55.153Z,151574.88
2022-08-24T01:17:16.055Z,151552.81
2022-08-24T01:18:38.573Z,151609.09
2022-08-24T01:19:51.349Z,151590.75
2022-08-24T01:21:01.625Z,151594.41
2022-08-24T01:22:11.190Z,151518.59
2022-08-24T01:23:36.545Z,151650.66
2022-08-24T01:24:39.782Z,151567.50
2022-08-24T01:25:44.572Z,151591.97
2022-08-24T01:26:49.480Z,151584.63
2022-08-24T01:27:53.105Z,151533.25
2022-08-24T01:29:00.189Z,151560.13
2022-08-24T01:30:09.518Z,151591.97
2022-08-24T01:31:13.605Z,151506.38
2022-08-24T01:32:24.396Z,151577.31
2022-08-24T01:33:30.170Z,151562.56
2022-08-24T01:34:32.334Z,151488.03
2022-08-24T01:35:36.798Z,151541.81
2022-08-24T01:36:51.558Z,151574.88
2022-08-24T01:37:55.925Z,151506.38
2022-08-24T01:39:02.416Z,151555.25
2022-08-24T01:40:07.300Z,151536.94
2022-08-24T01:41:09.545Z,151496.56
2022-08-24T01:42:14.659Z,151445.28
2022-08-24T01:43:18.978Z,151459.91
2022-08-24T01:44:24.474Z,151528.34
2022-08-24T01:45:27.298Z,151503.94
2022-08-24T01:46:29.578Z,151441.63
2022-08-24T01:47:31.770Z,151418.38
2022-08-24T01:48:34.015Z,151406.13
2022-08-24T01:49:39.879Z,151477.06
2022-08-24T01:50:42.801Z,151425.72
2022-08-24T01:51:46.376Z,151447.72
2022-08-24T01:53:05.806Z,151429.38
2022-08-24T01:54:09.854Z,151414.72
2022-08-24T01:55:14.180Z,151462.34
2022-08-24T01:56:21.275Z,151389.00
2022-08-24T01:57:26.938Z,151398.78
2022-08-24T01:58:31.691Z,151358.47
2022-08-24T01:59:35.449Z,151358.47
2022-08-24T02:00:38.449Z,151384.13
2022-08-24T02:01:46.118Z,151425.72
2022-08-24T02:02:48.418Z,151384.13
2022-08-24T02:03:51.738Z,151340.16
2022-08-24T02:04:55.674Z,151353.59
2022-08-24T02:05:58.903Z,151342.59
2022-08-24T02:07:02.700Z,151376.81
2022-08-24T02:08:06.653Z,151343.81
2022-08-24T02:09:08.862Z,151298.59
2022-08-24T02:10:12.954Z,151327.91
2022-08-24T02:11:15.741Z,151277.84
2022-08-24T02:12:18.795Z,151303.47
2022-08-24T02:13:21.464Z,151257.06
2022-08-24T02:14:23.719Z,151287.63
2022-08-24T02:15:36.297Z,151359.69
2022-08-24T02:16:39.142Z,151263.16
2022-08-24T02:17:41.383Z,151310.84
2022-08-24T02:18:44.367Z,151327.91
2022-08-24T02:19:48.009Z,151305.97
2022-08-24T02:20:50.720Z,151315.72
2022-08-24T02:21:53.281Z,151338.94
2022-08-24T02:22:55.546Z,151320.59
2022-08-24T02:23:57.782Z,151325.47
2022-08-24T02:25:00.231Z,151323.03
2022-08-24T02:26:04.319Z,151360.91
2022-08-24T02:27:08.307Z,151320.59
2022-08-24T02:28:10.743Z,151310.84
2022-08-24T02:29:12.948Z,151308.41
2022-08-24T02:30:16.097Z,151324.25
2022-08-24T02:31:18.431Z,151310.84
2022-08-24T02:32:21.423Z,151310.84
2022-08-24T02:33:25.406Z,151340.16
2022-08-24T02:34:27.697Z,151302.25
2022-08-24T02:35:30.459Z,151288.84
2022-08-24T02:36:33.139Z,151281.50
2022-08-24T02:37:36.123Z,151269.28
2022-08-24T02:38:47.363Z,151249.72
2022-08-24T02:39:53.212Z,151248.47
2022-08-24T02:40:57.953Z,151242.38
2022-08-24T02:42:00.652Z,151227.72
2022-08-24T02:43:03.639Z,151259.50
2022-08-24T02:44:07.231Z,151275.41
2022-08-24T02:45:10.643Z,151252.19
2022-08-24T02:46:18.938Z,151313.28
2022-08-24T02:47:21.448Z,151222.81
2022-08-24T02:48:40.465Z,151217.94
2022-08-24T02:49:42.835Z,151211.84
2022-08-24T02:50:49.121Z,151281.50
2022-08-24T02:51:51.398Z,151208.19
2022-08-24T02:52:55.784Z,151200.81
2022-08-24T02:54:00.664Z,151236.25
2022-08-24T02:55:04.562Z,151197.16
2022-08-24T02:56:07.331Z,151192.28
2022-08-24T02:57:10.206Z,151178.88
2022-08-24T02:58:13.969Z,151210.63
2022-08-24T02:59:17.034Z,151188.63
2022-08-24T03:00:21.693Z,151211.84
2022-08-24T03:01:30.655Z,151193.50
2022-08-24T03:02:33.685Z,151154.44
2022-08-24T03:03:36.262Z,151155.66
2022-08-24T03:04:38.944Z,151142.25
2022-08-24T03:05:41.263Z,151134.88
2022-08-24T03:06:44.081Z,151147.13
2022-08-24T03:07:46.275Z,151148.34
2022-08-24T03:08:54.705Z,151134.88
2022-08-24T03:09:58.637Z,151141.03
2022-08-24T03:11:01.013Z,151138.53
2022-08-24T03:12:03.875Z,151154.44
2022-08-24T03:13:09.981Z,151136.09
2022-08-24T03:14:13.227Z,151132.44
2022-08-24T03:15:15.757Z,151122.69
2022-08-24T03:16:18.427Z,151108.06
2022-08-24T03:17:20.737Z,151100.69
2022-08-24T03:18:24.618Z,151094.59
2022-08-24T03:19:27.871Z,151076.25
2022-08-24T03:20:30.461Z,151073.81
2022-08-24T03:21:33.964Z,151066.47
2022-08-24T03:22:36.377Z,151065.25
2022-08-24T03:23:38.652Z,151060.38
2022-08-24T03:24:40.852Z,151046.94
2022-08-24T03:25:43.202Z,151043.28
2022-08-24T03:26:45.430Z,151037.16
2022-08-24T03:27:48.489Z,151033.50
2022-08-24T03:28:52.757Z,151035.94
2022-08-24T03:29:55.548Z,151037.16
2022-08-24T03:30:57.894Z,151040.84
2022-08-24T03:32:00.533Z,151048.16
2022-08-24T03:33:03.740Z,151044.50
2022-08-24T03:34:06.187Z,151034.72
2022-08-24T03:35:10.381Z,151059.13
2022-08-24T03:36:14.453Z,151032.28
2022-08-24T03:37:17.521Z,151020.09
2022-08-24T03:38:21.280Z,151015.22
2022-08-24T03:39:24.652Z,151012.78
2022-08-24T03:40:33.085Z,151029.84
2022-08-24T03:41:35.408Z,150995.66
2022-08-24T03:42:40.467Z,151017.66
2022-08-24T03:43:46.587Z,150972.44
2022-08-24T03:44:50.260Z,150994.44
2022-08-24T03:45:53.144Z,150978.59
2022-08-24T03:46:56.308Z,150971.22
2022-08-24T03:48:00.445Z,150968.78
2022-08-24T03:49:05.861Z,151022.53
2022-08-24T03:50:10.577Z,150957.81
2022-08-24T03:51:16.384Z,151007.91
2022-08-24T03:52:18.623Z,150963.91
2022-08-24T03:53:21.053Z,150945.63
2022-08-24T03:54:23.395Z,150961.47
2022-08-24T03:55:25.894Z,150966.34
2022-08-24T03:56:28.536Z,150952.94
2022-08-24T03:57:31.605Z,150939.50
2022-08-24T03:58:36.383Z,151004.19
2022-08-24T03:59:46.446Z,150943.19
2022-08-24T04:00:50.096Z,150920.00
2022-08-24T04:01:55.727Z,150929.75
2022-08-24T04:02:58.078Z,150937.06
2022-08-24T04:04:05.541Z,150952.94
2022-08-24T04:05:11.068Z,150927.31
2022-08-24T04:06:15.973Z,150956.59
2022-08-24T04:07:18.524Z,150907.72
2022-08-24T04:08:21.134Z,150917.56
2022-08-24T04:09:23.429Z,150910.19
2022-08-24T04:10:25.605Z,150917.56
2022-08-24T04:11:29.655Z,150951.72
2022-08-24T04:12:31.845Z,150902.84
2022-08-24T04:13:34.004Z,150904.06
2022-08-24T04:14:36.285Z,150907.72
2022-08-24T04:15:45.539Z,150910.19
2022-08-24T04:16:51.633Z,150897.97
2022-08-24T04:18:05.991Z,150895.53
2022-08-24T04:19:08.628Z,150888.22
2022-08-24T04:20:11.497Z,150894.31
2022-08-24T04:21:25.700Z,150951.72
2022-08-24T04:22:31.013Z,150923.66
2022-08-24T04:23:46.797Z,150867.44
2022-08-24T04:24:50.956Z,150851.59
2022-08-24T04:25:53.432Z,150846.72
2022-08-24T04:26:55.992Z,150860.13
2022-08-24T04:28:00.016Z,150855.25
2022-08-24T04:29:04.322Z,150888.22
2022-08-24T04:30:14.604Z,150970.00
2022-08-24T04:31:38.086Z,150899.19
2022-08-24T04:32:40.855Z,150856.47
2022-08-24T04:33:47.162Z,150885.78
2022-08-24T04:34:57.740Z,150839.38
2022-08-24T04:36:00.623Z,150838.16
2022-08-24T04:37:09.598Z,150834.50
2022-08-24T04:38:14.910Z,150856.47
2022-08-24T04:39:22.784Z,150822.31
2022-08-24T04:40:47.150Z,150873.53
2022-08-24T04:41:51.145Z,150835.72
2022-08-24T04:42:55.553Z,150829.63
2022-08-24T04:43:59.122Z,150824.75
2022-08-24T04:45:01.567Z,150843.06
2022-08-24T04:46:08.123Z,150888.22
2022-08-24T04:47:10.360Z,150841.81
2022-08-24T04:48:15.581Z,150868.66
2022-08-24T04:49:17.839Z,150840.59
2022-08-24T04:50:20.250Z,150838.16
2022-08-24T04:51:27.042Z,150858.91
2022-08-24T04:52:37.009Z,150851.59
2022-08-24T04:53:40.184Z,150868.66
2022-08-24T04:54:42.418Z,150849.16
2022-08-24T04:55:53.218Z,150858.91
2022-08-24T04:56:55.424Z,150876.03
2022-08-24T04:57:57.715Z,150882.13
2022-08-24T04:59:01.441Z,150863.78
2022-08-24T05:00:05.832Z,150939.50
2022-08-24T05:01:10.270Z,150917.56
2022-08-24T05:02:13.160Z,150874.75
2022-08-24T05:03:15.710Z,150910.19
2022-08-24T05:04:18.261Z,150897.97
2022-08-24T05:05:20.530Z,150888.22
2022-08-24T05:06:26.030Z,150959.03
2022-08-24T05:07:29.561Z,150885.78
2022-08-24T05:08:32.294Z,150905.28
2022-08-24T05:09:34.576Z,150883.34
2022-08-24T05:10:39.640Z,150962.69
2022-08-24T05:11:41.886Z,150922.44
2022-08-24T05:12:54.968Z,150922.44
2022-08-24T05:13:58.635Z,150944.41
2022-08-24T05:15:00.983Z,150912.63
2022-08-24T05:16:10.204Z,150988.34
2022-08-24T05:17:12.459Z,150920.00
2022-08-24T05:18:16.781Z,150950.50
2022-08-24T05:19:19.238Z,150908.97
2022-08-24T05:20:21.677Z,150917.56
2022-08-24T05:21:28.366Z,150938.28
2022-08-24T05:22:31.831Z,150895.53
2022-08-24T05:23:35.786Z,150927.31
2022-08-24T05:24:38.037Z,150908.97
2022-08-24T05:25:40.849Z,150917.56
2022-08-24T05:26:43.621Z,150907.72
2022-08-24T05:27:47.397Z,150918.78
2022-08-24T05:28:50.488Z,150905.28
2022-08-24T05:29:54.639Z,150949.28
2022-08-24T05:31:09.679Z,150978.59
2022-08-24T05:32:12.873Z,150907.72
2022-08-24T05:33:15.247Z,150916.28
2022-08-24T05:34:18.431Z,150911.41
2022-08-24T05:36:30.183Z,150978.59
2022-08-24T05:37:35.405Z,150976.16
2022-08-24T05:38:53.138Z,150976.16
2022-08-24T05:39:55.448Z,150927.31
2022-08-24T05:40:57.856Z,150915.06
2022-08-24T05:42:02.441Z,150926.09
2022-08-24T05:43:07.401Z,150933.41
2022-08-24T05:44:11.506Z,150972.44
2022-08-24T05:45:13.814Z,150945.63
2022-08-24T05:46:16.276Z,150956.59
2022-08-24T05:47:18.851Z,150959.03
2022-08-24T05:48:22.123Z,150966.34
2022-08-24T05:49:43.293Z,150981.03
2022-08-24T05:50:55.471Z,151067.69
2022-08-24T05:51:59.934Z,151018.88
2022-08-24T05:53:02.293Z,151023.75
2022-08-24T05:54:06.333Z,151048.16
2022-08-24T05:55:19.419Z,151046.94
2022-08-24T05:56:21.845Z,151061.59
2022-08-24T05:57:27.099Z,151111.72
2022-08-24T05:58:46.989Z,151117.81
2022-08-24T05:59:50.362Z,151139.81
2022-08-24T06:00:53.315Z,151114.16
2022-08-24T06:01:55.679Z,151141.03
2022-08-24T06:02:58.115Z,151144.69
2022-08-24T06:04:00.402Z,151158.09
2022-08-24T06:05:03.086Z,151184.97
2022-08-24T06:06:07.615Z,151241.16
2022-08-24T06:07:10.207Z,151222.81
2022-08-24T06:08:15.799Z,151253.41
2022-08-24T06:09:18.054Z,151249.72
2022-08-24T06:10:36.280Z,151249.72
2022-08-24T06:11:41.909Z,151281.50
2022-08-24T06:12:44.214Z,151281.50
2022-08-24T06:13:46.383Z,151310.84
2022-08-24T06:14:56.125Z,151293.72
2022-08-24T06:16:47.886Z,151420.81
2022-08-24T06:17:33.914Z,151428.16
2022-08-24T06:18:36.370Z,151467.25
2022-08-24T06:19:42.301Z,151521.03
2022-08-24T06:20:44.633Z,151598.06
2022-08-24T06:21:52.220Z,151731.38
2022-08-24T06:22:54.604Z,151761.94
2022-08-24T06:24:00.241Z,151930.78
2022-08-24T06:25:21.769Z,152015.19
2022-08-24T06:26:44.455Z,152196.41
2022-08-24T06:27:51.191Z,152256.34
2022-08-24T06:28:53.738Z,152326.19
2022-08-24T06:30:06.258Z,152443.75
2022-08-24T06:31:17.288Z,152517.22
2022-08-24T06:32:19.920Z,152612.78
2022-08-24T06:33:22.420Z,152464.59
2022-08-24T06:34:27.095Z,152625.06
2022-08-24T06:35:29.583Z,152656.91
2022-08-24T06:36:32.632Z,152718.19
2022-08-24T06:37:34.823Z,152827.25
2022-08-24T06:38:37.560Z,152851.78
2022-08-24T06:39:40.829Z,152897.16
2022-08-24T06:40:43.030Z,152948.59
2022-08-24T06:41:46.106Z,153012.38
2022-08-24T06:42:55.124Z,153006.25
2022-08-24T06:44:08.704Z,153142.38
2022-08-24T06:45:22.744Z,153146.03
2022-08-24T06:46:32.018Z,153112.94
2022-08-24T06:47:35.294Z,153055.31
2022-08-24T06:48:37.537Z,153121.56
2022-08-24T06:49:40.777Z,153224.59
2022-08-24T06:50:43.062Z,153301.84
2022-08-24T06:51:50.424Z,153387.75
2022-08-24T06:52:53.280Z,153403.69
2022-08-24T06:53:58.825Z,153287.16
2022-08-24T06:55:01.938Z,153285.91
2022-08-24T06:56:05.821Z,153343.56
2022-08-24T06:57:09.343Z,153409.81
2022-08-24T06:58:11.579Z,153433.13
2022-08-24T06:59:14.060Z,153479.78
2022-08-24T07:00:17.521Z,153412.25
2022-08-24T07:01:26.349Z,153257.72
2022-08-24T07:02:29.319Z,153051.59
2022-08-24T07:03:32.041Z,153034.47
2022-08-24T07:04:50.901Z,153054.09
2022-08-24T07:06:13.586Z,153003.81
2022-08-24T07:07:17.323Z,152979.28
2022-08-24T07:08:20.979Z,152971.94
2022-08-24T07:09:26.150Z,152953.53
2022-08-24T07:10:30.415Z,153089.63
2022-08-24T07:11:35.050Z,153078.56
2022-08-24T07:12:37.998Z,153110.50
2022-08-24T07:13:40.575Z,153217.25
2022-08-24T07:14:43.309Z,153321.47
2022-08-24T07:15:45.612Z,153390.22
2022-08-24T07:16:49.172Z,153458.91
2022-08-24T07:17:51.430Z,153473.66
2022-08-24T07:18:53.796Z,153376.69
2022-08-24T07:19:56.930Z,153562.00
2022-08-24T07:21:25.299Z,153623.41
2022-08-24T07:22:28.433Z,153633.19
2022-08-24T07:23:41.946Z,153493.28
2022-08-24T07:24:46.636Z,153575.47
2022-08-24T07:25:54.185Z,153655.31
2022-08-24T07:26:58.195Z,153630.75
2022-08-24T07:28:03.149Z,153699.50
2022-08-24T07:29:30.645Z,153787.91
2022-08-24T07:30:34.369Z,153781.75
2022-08-24T07:31:39.566Z,153984.41
2022-08-24T07:32:47.102Z,154021.25
2022-08-24T07:33:49.364Z,153893.50
2022-08-24T07:34:51.595Z,153954.94
2022-08-24T07:35:55.138Z,154082.69
2022-08-24T07:37:00.492Z,154097.41
2022-08-24T07:38:07.622Z,154045.84
2022-08-24T07:39:10.217Z,154107.22
2022-08-24T07:40:13.069Z,154206.75
2022-08-24T07:41:38.185Z,154232.56
2022-08-24T07:42:40.127Z,154295.25
2022-08-24T07:43:43.006Z,154238.69
2022-08-24T07:44:46.010Z,154222.75
2022-08-24T07:45:49.490Z,154346.88
2022-08-24T07:46:52.498Z,154141.59
2022-08-24T07:47:56.029Z,154040.88
2022-08-24T07:49:36.821Z,154271.91
2022-08-24T07:50:41.091Z,154198.16
2022-08-24T07:51:44.936Z,154161.31
2022-08-24T07:52:49.434Z,154200.63
2022-08-24T07:53:53.880Z,154042.13
2022-08-24T07:55:01.407Z,154212.94
2022-08-24T07:56:03.928Z,154192.03
2022-08-24T07:57:08.059Z,154303.84
2022-08-24T07:58:11.157Z,154375.13
2022-08-24T07:59:14.013Z,154196.94
2022-08-24T08:00:19.694Z,154413.25
2022-08-24T08:01:27.150Z,154448.88
2022-08-24T08:02:36.160Z,154332.09
2022-08-24T08:03:38.982Z,154239.91
2022-08-24T08:04:42.090Z,154102.31
2022-08-24T08:05:44.714Z,154012.66
2022-08-24T08:06:47.216Z,153888.59
2022-08-24T08:07:52.406Z,153972.09
2022-08-24T08:08:55.448Z,154006.47
2022-08-24T08:09:57.917Z,154031.06
2022-08-24T08:11:01.990Z,154123.22
2022-08-24T08:12:04.627Z,154010.16
2022-08-24T08:13:07.463Z,154280.53
2022-08-24T08:14:10.192Z,154249.78
2022-08-24T08:15:12.606Z,154324.75
2022-08-24T08:16:22.740Z,154424.31
2022-08-24T08:17:25.608Z,154443.97
2022-08-24T08:18:28.539Z,154448.88
2022-08-24T08:19:33.046Z,154414.47
2022-08-24T08:20:37.930Z,154376.41
2022-08-24T08:22:08.926Z,154517.75
2022-08-24T08:23:42.731Z,154512.84
2022-08-24T08:24:51.886Z,154421.84
2022-08-24T08:25:57.504Z,154507.91
2022-08-24T08:27:21.763Z,154426.75
2022-08-24T08:28:33.062Z,154564.41
2022-08-24T08:29:40.468Z,154648.06
2022-08-24T08:30:45.379Z,154608.75
2022-08-24T08:31:49.138Z,154680.03
2022-08-24T08:32:51.644Z,154575.50
2022-08-24T08:33:53.889Z,154643.16
2022-08-24T08:35:00.183Z,154708.34
2022-08-24T08:36:12.601Z,154881.72
2022-08-24T08:37:20.289Z,154757.50
2022-08-24T08:38:22.713Z,154767.31
2022-08-24T08:39:26.366Z,154838.66
2022-08-24T08:40:45.143Z,155073.66
2022-08-24T08:42:19.277Z,155215.16
2022-08-24T08:43:52.680Z,155190.50
2022-08-24T08:45:26.288Z,155228.69
2022-08-24T08:47:08.726Z,155285.28
2022-08-24T08:48:32.101Z,155302.47
2022-08-24T08:49:55.232Z,155236.06
2022-08-24T08:51:15.467Z,155305.03
2022-08-24T08:52:48.600Z,155261.91
2022-08-24T08:54:27.103Z,155258.22
2022-08-24T08:55:41.435Z,155322.22
2022-08-24T08:57:05.044Z,155337.03
2022-08-24T08:58:39.985Z,155307.50
2022-08-24T08:59:57.674Z,155435.44
2022-08-24T09:01:14.618Z,155478.56
2022-08-24T09:02:55.831Z,155516.72
2022-08-24T09:04:21.443Z,155632.44
2022-08-24T09:05:41.464Z,155706.38
2022-08-24T09:07:00.922Z,155578.28
2022-08-24T09:08:09.258Z,155473.63
2022-08-24T09:09:35.190Z,155691.53
2022-08-24T09:10:54.747Z,155749.44
2022-08-24T09:12:17.524Z,155850.44
2022-08-24T09:13:55.779Z,155898.47
2022-08-24T09:15:39.093Z,155883.72
2022-08-24T09:16:48.925Z,155686.63
2022-08-24T09:18:26.300Z,155843.06
2022-08-24T09:19:32.058Z,155638.63
2022-08-24T09:21:14.131Z,155839.38
2022-08-24T09:22:19.809Z,155797.47
2022-08-24T09:23:50.754Z,155896.00
2022-08-24T09:24:52.952Z,155948.97
2022-08-24T09:26:33.363Z,155872.59
2022-08-24T09:28:08.350Z,155915.72
2022-08-24T09:29:54.686Z,155969.91
2022-08-24T09:31:15.817Z,156036.44
2022-08-24T09:32:34.326Z,156014.28
2022-08-24T09:33:43.577Z,156090.66
2022-08-24T09:34:59.707Z,156027.81
2022-08-24T09:36:08.205Z,155999.47
2022-08-24T09:37:30.466Z,156078.34
2022-08-24T09:39:00.325Z,155399.72
2022-08-24T09:40:46.857Z,155676.78
2022-08-24T09:42:10.256Z,155883.72
2022-08-24T09:43:43.991Z,155888.63
2022-08-24T09:45:19.819Z,156074.66
2022-08-24T09:46:47.991Z,156181.84
2022-08-24T09:48:24.187Z,156082.03
2022-08-24T09:49:44.592Z,156243.44
2022-08-24T09:50:46.640Z,156452.97
2022-08-24T09:52:31.639Z,156576.22
2022-08-24T09:53:42.749Z,156449.28
2022-08-24T09:55:25.697Z,156480.06
2022-08-24T09:56:34.912Z,156550.34
2022-08-24T09:58:01.826Z,156671.16
2022-08-24T09:59:19.755Z,156810.50
2022-08-24T10:00:30.075Z,156932.56
2022-08-24T10:02:09.494Z,156775.94
2022-08-24T10:03:38.679Z,156788.28
2022-08-24T10:05:05.526Z,156482.53
2022-08-24T10:06:28.669Z,156112.84
2022-08-24T10:07:49.396Z,156358.06
2022-08-24T10:09:01.551Z,156228.63
2022-08-24T10:10:15.993Z,156094.34
2022-08-24T10:11:45.022Z,156332.13
2022-08-24T10:13:20.472Z,156358.06
2022-08-24T10:14:44.392Z,156343.28
2022-08-24T10:15:55.418Z,156295.19
2022-08-24T10:17:12.780Z,156282.88
2022-08-24T10:18:40.696Z,156231.09
2022-08-24T10:19:58.116Z,156423.34
2022-08-24T10:21:12.268Z,156339.56
2022-08-24T10:22:32.408Z,156398.75
2022-08-24T10:24:02.005Z,156491.16
2022-08-24T10:25:37.433Z,156661.25
2022-08-24T10:27:10.670Z,156889.41
2022-08-24T10:28:48.867Z,156625.53
2022-08-24T10:30:35.862Z,156250.84
2022-08-24T10:31:47.838Z,156549.09
2022-08-24T10:33:04.346Z,156279.19
2022-08-24T10:34:35.002Z,156697.03
2022-08-24T10:35:50.344Z,156822.78
2022-08-24T10:37:07.620Z,156769.78
2022-08-24T10:38:48.094Z,156789.53
2022-08-24T10:40:13.621Z,156610.75
2022-08-24T10:41:49.803Z,156613.22
2022-08-24T10:43:35.651Z,156838.84
2022-08-24T10:44:50.013Z,156793.22
2022-08-24T10:46:30.941Z,157052.19
2022-08-24T10:47:36.510Z,157182.91
2022-08-24T10:48:44.840Z,157293.97
2022-08-24T10:50:16.009Z,157460.53
2022-08-24T10:51:51.402Z,157380.34
2022-08-24T10:53:11.979Z,157174.31
2022-08-24T10:54:14.411Z,157097.84
2022-08-24T10:55:23.582Z,157065.78
2022-08-24T10:56:42.083Z,156978.22
2022-08-24T10:57:51.042Z,157069.47
2022-08-24T10:59:08.842Z,156928.81
2022-08-24T11:00:22.700Z,156630.47
2022-08-24T11:01:31.393Z,156978.22
2022-08-24T11:02:35.232Z,156835.16
2022-08-24T11:03:48.838Z,157279.13
2022-08-24T11:04:59.620Z,157216.25
2022-08-24T11:06:15.060Z,157481.50
2022-08-24T11:07:19.773Z,157213.78
2022-08-24T11:08:23.539Z,157087.94
2022-08-24T11:09:44.543Z,157363.06
2022-08-24T11:11:02.813Z,157271.75
2022-08-24T11:12:18.209Z,156651.41
2022-08-24T11:13:27.249Z,156814.19
2022-08-24T11:14:31.881Z,157042.34
2022-08-24T11:15:34.088Z,157044.81
2022-08-24T11:16:42.657Z,157049.75
2022-08-24T11:17:59.198Z,157300.16
2022-08-24T11:19:05.098Z,157138.56
2022-08-24T11:20:54.984Z,157261.84
2022-08-24T11:22:05.441Z,156630.47
2022-08-24T11:23:17.779Z,156398.75
2022-08-24T11:24:26.856Z,156157.16
2022-08-24T11:25:34.313Z,156507.19
2022-08-24T11:26:53.703Z,156856.06
2022-08-24T11:28:05.918Z,157112.59
2022-08-24T11:29:08.271Z,157216.25
2022-08-24T11:30:23.288Z,157363.06
2022-08-24T11:31:39.074Z,157284.06
2022-08-24T11:32:51.229Z,157153.34
2022-08-24T11:34:03.540Z,157270.53
2022-08-24T11:35:26.123Z,157414.88
2022-08-24T11:36:34.757Z,157448.16
2022-08-24T11:37:39.638Z,157206.38
2022-08-24T11:38:45.638Z,156948.56
2022-08-24T11:39:48.511Z,156946.09
2022-08-24T11:40:56.634Z,156995.44
2022-08-24T11:42:14.475Z,157165.69
2022-08-24T11:43:19.375Z,157133.63
2022-08-24T11:44:33.388Z,156980.66
2022-08-24T11:45:41.178Z,156420.88
2022-08-24T11:47:03.384Z,156632.97
2022-08-24T11:48:31.635Z,156546.66
2022-08-24T11:50:02.261Z,156687.16
2022-08-24T11:51:24.283Z,156958.47
2022-08-24T11:52:48.202Z,156997.94
2022-08-24T11:53:56.028Z,156884.47
2022-08-24T11:55:18.477Z,156773.47
2022-08-24T11:56:50.492Z,157006.56
2022-08-24T11:57:55.812Z,157108.91
2022-08-24T11:59:20.025Z,157116.31
2022-08-24T12:00:30.206Z,156981.91
2022-08-24T12:01:56.614Z,156862.22
2022-08-24T12:03:09.045Z,156800.66
2022-08-24T12:04:40.727Z,157007.78
2022-08-24T12:06:08.118Z,157001.63
2022-08-24T12:07:28.895Z,156976.97
2022-08-24T12:08:41.907Z,157076.88
2022-08-24T12:09:56.115Z,157163.22
2022-08-24T12:10:58.262Z,157205.13
2022-08-24T12:12:18.280Z,157224.88
2022-08-24T12:13:38.937Z,157081.78
2022-08-24T12:15:11.493Z,157160.72
2022-08-24T12:16:35.352Z,157027.47
2022-08-24T12:17:46.869Z,156692.06
2022-08-24T12:19:09.008Z,156796.91
2022-08-24T12:20:33.912Z,156833.91
2022-08-24T12:21:39.747Z,156763.59
2022-08-24T12:22:42.648Z,156751.28
2022-08-24T12:23:49.717Z,156914.06
2022-08-24T12:24:55.626Z,156948.56
2022-08-24T12:26:14.248Z,156647.72
2022-08-24T12:27:20.463Z,156864.72
2022-08-24T12:28:32.083Z,156610.75
2022-08-24T12:29:51.638Z,156247.13
2022-08-24T12:30:58.095Z,156346.97
2022-08-24T12:32:15.979Z,156706.94
2022-08-24T12:33:23.346Z,156869.69
2022-08-24T12:34:50.377Z,157034.91
2022-08-24T12:35:59.421Z,156923.91
2022-08-24T12:37:19.709Z,156620.63
2022-08-24T12:38:25.708Z,156773.47
2022-08-24T12:39:36.161Z,156630.47
2022-08-24T12:40:43.107Z,156478.84
2022-08-24T12:42:14.549Z,156216.31
2022-08-24T12:43:28.110Z,156498.56
2022-08-24T12:44:40.657Z,156610.75
2022-08-24T12:45:44.779Z,156584.84
2022-08-24T12:46:54.345Z,156639.13
2022-08-24T12:48:00.582Z,156769.78
2022-08-24T12:49:08.323Z,156874.63
2022-08-24T12:50:28.514Z,156618.16
2022-08-24T12:52:01.504Z,156702.00
2022-08-24T12:53:15.761Z,156833.91
2022-08-24T12:54:50.402Z,156872.16
2022-08-24T12:56:10.895Z,156931.34
2022-08-24T12:57:19.671Z,156968.34
2022-08-24T12:58:54.496Z,157027.47
2022-08-24T13:00:06.980Z,156842.53
2022-08-24T13:01:14.336Z,156917.75
2022-08-24T13:02:19.735Z,156743.91
2022-08-24T13:03:30.838Z,156830.19
2022-08-24T13:04:54.799Z,156740.19
2022-08-24T13:06:00.762Z,156623.06
2022-08-24T13:07:39.957Z,156852.38
2022-08-24T13:08:46.007Z,156517.03
2022-08-24T13:09:52.456Z,156085.72
2022-08-24T13:11:05.976Z,156455.41
2022-08-24T13:12:30.822Z,156628.00
2022-08-24T13:14:18.434Z,156653.88
2022-08-24T13:15:28.156Z,156502.25
2022-08-24T13:17:10.499Z,156522.00
2022-08-24T13:18:12.627Z,156385.16